createdAt,value
2018-12-09T00:01:54.500Z,8.23
2018-12-09T00:04:24.167Z,10.50
2018-12-09T00:06:54.100Z,7.00
2018-12-09T00:09:23.684Z,12.73
2018-12-09T00:11:53.249Z,7.90
2018-12-09T00:14:22.876Z,9.03
2018-12-09T00:16:52.481Z,7.47
2018-12-09T00:19:22.068Z,8.23
2018-12-09T00:21:51.700Z,7.93
2018-12-09T00:24:21.327Z,8.43
2018-12-09T00:26:52.172Z,8.57
2018-12-09T00:29:21.754Z,5.07
2018-12-09T00:31:51.366Z,8.23
2018-12-09T00:34:20.945Z,8.23
2018-12-09T00:36:50.537Z,10.67
2018-12-09T00:39:21.046Z,7.87
2018-12-09T00:41:50.642Z,4.40
2018-12-09T00:44:20.238Z,6.63
2018-12-09T00:46:49.823Z,5.53
2018-12-09T00:49:19.414Z,6.33
2018-12-09T00:51:48.986Z,3.70
2018-12-09T00:54:18.619Z,11.40
2018-12-09T00:56:48.250Z,2.67
2018-12-09T00:59:17.881Z,8.10
2018-12-09T01:01:47.523Z,5.07
2018-12-09T01:04:17.263Z,4.70
2018-12-09T01:06:47.130Z,3.03
2018-12-09T01:09:16.705Z,3.83
2018-12-09T01:11:46.285Z,2.97
2018-12-09T01:14:15.983Z,3.80
2018-12-09T01:16:45.725Z,3.47
2018-12-09T01:19:15.338Z,2.83
2018-12-09T01:21:44.924Z,3.47
2018-12-09T01:24:14.565Z,5.50
2018-12-09T01:26:44.193Z,7.17
2018-12-09T01:29:13.922Z,4.50
2018-12-09T01:31:43.646Z,7.00
2018-12-09T01:34:13.248Z,9.17
2018-12-09T01:36:43.503Z,10.07
2018-12-09T01:39:13.067Z,7.20
2018-12-09T01:41:42.643Z,9.83
2018-12-09T01:44:12.231Z,7.90
2018-12-09T01:46:42.654Z,11.57
2018-12-09T01:49:12.262Z,9.07
2018-12-09T01:51:41.844Z,9.80
2018-12-09T01:54:12.290Z,7.97
2018-12-09T01:56:41.910Z,12.90
2018-12-09T01:59:11.802Z,9.43
2018-12-09T02:01:41.699Z,8.20
2018-12-09T02:04:11.353Z,9.97
2018-12-09T02:06:41.651Z,10.20
2018-12-09T02:09:11.874Z,8.93
2018-12-09T02:11:41.477Z,12.13
2018-12-09T02:14:11.254Z,13.33
2018-12-09T02:16:41.064Z,15.47
2018-12-09T02:19:18.450Z,10.67
2018-12-09T02:21:48.006Z,8.47
2018-12-09T02:24:17.982Z,9.37
2018-12-09T02:31:38.090Z,15.10
2018-12-09T02:34:08.157Z,12.73
2018-12-09T02:36:38.237Z,10.07
2018-12-09T02:39:08.870Z,13.97
2018-12-09T02:41:38.765Z,11.60
2018-12-09T02:44:08.346Z,8.33
2018-12-09T02:46:38.609Z,10.80
2018-12-09T02:49:08.593Z,11.27
2018-12-09T02:51:38.293Z,12.97
2018-12-09T02:54:08.070Z,11.50
2018-12-09T02:56:38.150Z,11.13
2018-12-09T02:59:08.018Z,11.57
2018-12-09T03:01:37.862Z,11.33
2018-12-09T03:04:07.478Z,12.97
2018-12-09T03:06:37.092Z,9.17
2018-12-09T03:09:07.181Z,9.30
2018-12-09T03:11:37.017Z,14.60
2018-12-09T03:14:06.658Z,11.40
2018-12-09T03:16:36.301Z,13.80
2018-12-09T03:19:05.984Z,14.30
2018-12-09T03:21:35.585Z,13.93
2018-12-09T03:24:05.179Z,14.13
2018-12-09T03:26:34.826Z,13.13
2018-12-09T03:29:04.419Z,12.50
2018-12-09T03:31:34.287Z,13.53
2018-12-09T03:34:04.115Z,9.83
2018-12-09T03:36:33.699Z,12.23
2018-12-09T03:39:04.123Z,10.37
2018-12-09T03:41:33.752Z,12.13
2018-12-09T03:44:03.359Z,12.57
2018-12-09T03:46:32.990Z,8.83
2018-12-09T03:49:02.643Z,10.27
2018-12-09T03:51:32.267Z,9.63
2018-12-09T03:54:01.881Z,14.03
2018-12-09T03:56:31.475Z,13.03
2018-12-09T03:59:01.117Z,10.50
2018-12-09T04:01:30.726Z,10.87
2018-12-09T04:04:00.369Z,10.60
2018-12-09T04:06:30.329Z,13.70
2018-12-09T04:09:00.114Z,15.20
2018-12-09T04:11:30.328Z,10.57
2018-12-09T04:14:00.197Z,10.40
2018-12-09T04:16:29.957Z,10.77
2018-12-09T04:18:59.550Z,12.37
2018-12-09T04:21:29.788Z,9.13
2018-12-09T04:23:59.432Z,10.97
2018-12-09T04:26:29.012Z,14.57
2018-12-09T04:28:58.613Z,14.40
2018-12-09T04:31:28.235Z,8.07
2018-12-09T04:33:57.823Z,7.33
2018-12-09T04:36:27.661Z,9.13
2018-12-09T04:38:57.312Z,11.07
2018-12-09T04:41:27.117Z,8.90
2018-12-09T04:43:56.686Z,11.27
2018-12-09T04:46:26.298Z,8.70
2018-12-09T04:48:55.881Z,11.50
2018-12-09T04:54:16.632Z,11.17
2018-12-09T04:56:47.756Z,6.47
2018-12-09T04:59:20.375Z,10.63
2018-12-09T05:01:49.960Z,9.73
2018-12-09T05:04:19.873Z,10.57
2018-12-09T05:06:49.499Z,3.97
2018-12-09T05:09:19.057Z,10.57
2018-12-09T05:11:49.117Z,9.60
2018-12-09T05:14:18.938Z,7.00
2018-12-09T05:16:48.593Z,8.43
2018-12-09T05:19:18.227Z,6.27
2018-12-09T05:21:47.812Z,5.77
2018-12-09T05:24:17.434Z,7.27
2018-12-09T05:26:47.362Z,5.57
2018-12-09T05:29:17.221Z,6.97
2018-12-09T05:31:47.068Z,6.70
2018-12-09T05:34:17.427Z,6.57
2018-12-09T05:36:47.016Z,4.20
2018-12-09T05:39:16.583Z,6.30
2018-12-09T05:41:46.254Z,6.50
2018-12-09T05:44:15.861Z,4.30
2018-12-09T05:46:45.419Z,3.77
2018-12-09T05:49:15.079Z,2.67
2018-12-09T05:51:44.666Z,6.27
2018-12-09T05:54:14.367Z,5.40
2018-12-09T05:56:43.919Z,4.10
2018-12-09T05:59:13.600Z,8.87
2018-12-09T06:01:43.306Z,5.47
2018-12-09T06:04:12.903Z,5.13
2018-12-09T06:06:43.321Z,6.37
2018-12-09T06:09:12.898Z,8.50
2018-12-09T06:11:42.765Z,4.60
2018-12-09T06:14:12.332Z,5.77
2018-12-09T06:16:41.905Z,5.90
2018-12-09T06:19:11.494Z,4.90
2018-12-09T06:21:41.131Z,4.53
2018-12-09T06:24:10.984Z,3.73
2018-12-09T06:26:40.588Z,3.27
2018-12-09T06:29:10.643Z,4.10
2018-12-09T06:31:40.303Z,5.03
2018-12-09T06:34:09.889Z,6.93
2018-12-09T06:36:39.462Z,6.03
2018-12-09T06:39:09.074Z,5.10
2018-12-09T06:41:38.647Z,5.47
2018-12-09T06:44:08.243Z,5.50
2018-12-09T06:46:37.811Z,5.77
2018-12-09T06:49:07.425Z,6.20
2018-12-09T06:51:37.453Z,10.83
2018-12-09T06:54:07.049Z,9.27
2018-12-09T06:56:36.608Z,6.07
2018-12-09T06:59:06.253Z,8.87
2018-12-09T07:01:35.856Z,7.63
2018-12-09T07:04:05.509Z,9.40
2018-12-09T07:06:35.077Z,5.83
2018-12-09T07:09:05.838Z,8.43
2018-12-09T07:11:35.669Z,6.13
2018-12-09T07:14:05.837Z,8.27
2018-12-09T07:16:35.419Z,5.13
2018-12-09T07:19:05.045Z,6.17
2018-12-09T07:21:34.674Z,8.00
2018-12-09T07:24:04.328Z,9.47
2018-12-09T07:26:33.955Z,7.73
2018-12-09T07:29:03.522Z,4.77
2018-12-09T07:31:33.120Z,8.80
2018-12-09T07:34:02.663Z,7.80
2018-12-09T07:36:34.003Z,7.87
2018-12-09T07:39:04.028Z,5.93
2018-12-09T07:41:33.652Z,7.53
2018-12-09T07:44:03.260Z,11.10
2018-12-09T07:46:32.935Z,10.53
2018-12-09T07:49:02.566Z,11.93
2018-12-09T07:51:32.163Z,11.47
2018-12-09T07:54:01.874Z,13.07
2018-12-09T07:56:31.458Z,11.17
2018-12-09T07:59:01.108Z,11.60
2018-12-09T08:01:30.730Z,13.57
2018-12-09T08:04:00.326Z,11.80
2018-12-09T08:06:29.926Z,15.70
2018-12-09T08:08:59.516Z,12.00
2018-12-09T08:11:29.086Z,10.13
2018-12-09T08:13:58.665Z,9.03
2018-12-09T08:16:28.251Z,11.53
2018-12-09T08:18:57.921Z,10.77
2018-12-09T08:21:27.550Z,16.77
2018-12-09T08:23:57.211Z,13.00
2018-12-09T08:26:26.802Z,14.00
2018-12-09T08:28:56.364Z,14.00
2018-12-09T08:31:25.961Z,14.47
2018-12-09T08:33:55.554Z,13.30
2018-12-09T08:36:25.914Z,13.17
2018-12-09T08:38:56.497Z,13.40
2018-12-09T08:41:26.066Z,9.37
2018-12-09T08:43:55.673Z,11.47
2018-12-09T08:46:25.298Z,11.53
2018-12-09T08:48:54.892Z,13.37
2018-12-09T08:51:24.463Z,11.33
2018-12-09T08:53:54.152Z,11.77
2018-12-09T08:56:23.739Z,10.63
2018-12-09T08:58:53.409Z,9.60
2018-12-09T09:01:23.362Z,12.93
2018-12-09T09:03:53.174Z,8.27
2018-12-09T09:06:22.783Z,12.30
2018-12-09T09:08:52.442Z,9.60
2018-12-09T09:11:22.016Z,11.67
2018-12-09T09:13:51.595Z,11.60
2018-12-09T09:16:22.088Z,3.80
2018-12-09T09:18:51.658Z,3.60
2018-12-09T09:21:21.232Z,1.13
2018-12-09T09:23:50.816Z,2.53
2018-12-09T09:26:20.406Z,2.47
2018-12-09T09:28:49.995Z,2.43
2018-12-09T09:31:19.609Z,2.40
2018-12-09T09:33:49.434Z,2.00
2018-12-09T09:36:19.007Z,2.43
2018-12-09T09:38:48.692Z,1.67
2018-12-09T09:41:18.355Z,2.30
2018-12-09T09:43:47.929Z,1.73
2018-12-09T09:46:18.562Z,6.23
2018-12-09T09:48:48.412Z,3.13
2018-12-09T09:54:24.315Z,1.03
2018-12-09T09:56:53.975Z,0.60
2018-12-09T09:59:23.622Z,1.57
2018-12-09T10:01:55.137Z,4.17
2018-12-09T10:04:24.701Z,4.90
2018-12-09T10:06:54.357Z,4.07
2018-12-09T10:09:24.224Z,0.87
2018-12-09T10:11:53.897Z,7.50
2018-12-09T10:14:23.635Z,2.93
2018-12-09T10:16:53.234Z,4.90
2018-12-09T10:19:22.832Z,1.77
2018-12-09T10:21:52.513Z,20.30
2018-12-09T10:24:22.138Z,5.30
2018-12-09T10:26:51.740Z,2.80
2018-12-09T10:29:21.311Z,3.17
2018-12-09T10:31:54.041Z,2.10
2018-12-09T10:34:23.655Z,2.70
2018-12-09T10:36:55.276Z,2.63
2018-12-09T10:39:24.938Z,1.43
2018-12-09T10:41:54.531Z,0.73
2018-12-09T10:44:24.109Z,1.10
2018-12-09T10:46:54.061Z,2.37
2018-12-09T10:49:23.737Z,2.23
2018-12-09T10:51:53.614Z,2.13
2018-12-09T10:54:23.206Z,2.07
2018-12-09T10:56:52.840Z,2.27
2018-12-09T10:59:28.415Z,1.57
2018-12-09T11:02:05.251Z,1.60
2018-12-09T11:04:34.846Z,2.60
2018-12-09T11:07:04.474Z,0.63
2018-12-09T11:09:34.053Z,2.30
2018-12-09T11:12:03.635Z,1.00
2018-12-09T11:14:33.250Z,2.63
2018-12-09T11:17:10.544Z,1.63
2018-12-09T11:19:40.881Z,2.30
2018-12-09T11:22:11.097Z,1.10
2018-12-09T11:24:40.852Z,1.63
2018-12-09T11:27:21.295Z,3.60
2018-12-09T11:29:50.856Z,4.07
2018-12-09T11:32:20.558Z,3.23
2018-12-09T11:34:50.199Z,1.07
2018-12-09T11:37:20.792Z,1.10
2018-12-09T11:40:00.161Z,1.67
2018-12-09T11:42:29.848Z,3.33
2018-12-09T11:44:59.430Z,2.00
2018-12-09T11:47:29.378Z,3.00
2018-12-09T11:49:59.032Z,2.97
2018-12-09T11:52:28.894Z,3.03
2018-12-09T11:54:58.530Z,5.27
2018-12-09T12:00:35.254Z,2.87
2018-12-09T12:03:04.939Z,5.27
2018-12-09T12:05:52.970Z,2.67
2018-12-09T12:08:25.330Z,2.63
2018-12-09T12:10:56.702Z,2.30
2018-12-09T12:13:29.808Z,2.30
2018-12-09T12:16:05.083Z,3.33
2018-12-09T12:18:42.417Z,2.43
2018-12-09T12:21:17.692Z,2.40
2018-12-09T12:23:47.303Z,2.00
2018-12-09T12:26:17.290Z,2.80
2018-12-09T12:28:46.962Z,3.90
2018-12-09T12:31:16.545Z,1.63
2018-12-09T12:34:10.386Z,4.67
2018-12-09T12:36:42.434Z,4.10
2018-12-09T12:39:12.461Z,6.60
2018-12-09T12:41:42.020Z,4.27
2018-12-09T12:44:11.670Z,3.30
2018-12-09T12:46:41.304Z,3.73
2018-12-09T12:49:14.135Z,2.60
2018-12-09T12:51:45.655Z,4.07
2018-12-09T12:54:20.922Z,6.33
2018-12-09T12:56:53.028Z,3.80
2018-12-09T12:59:24.357Z,2.47
2018-12-09T13:02:24.486Z,5.50
2018-12-09T13:04:54.119Z,4.93
2018-12-09T13:07:23.777Z,3.50
2018-12-09T13:09:53.389Z,6.27
2018-12-09T13:12:22.960Z,5.30
2018-12-09T13:14:52.748Z,3.57
2018-12-09T13:17:24.125Z,4.43
2018-12-09T13:19:53.929Z,6.00
2018-12-09T13:22:23.806Z,3.77
2018-12-09T13:24:53.580Z,5.10
2018-12-09T13:27:23.582Z,5.17
2018-12-09T13:29:53.580Z,5.57
2018-12-09T13:32:23.419Z,4.30
2018-12-09T13:34:53.364Z,5.07
2018-12-09T13:37:23.248Z,4.80
2018-12-09T13:39:52.902Z,4.53
2018-12-09T13:42:22.506Z,5.50
2018-12-09T13:44:52.168Z,3.93
2018-12-09T13:47:22.030Z,6.47
2018-12-09T13:49:51.747Z,4.90
2018-12-09T13:52:21.593Z,5.33
2018-12-09T13:54:51.532Z,5.77
2018-12-09T13:57:21.288Z,8.83
2018-12-09T13:59:51.799Z,5.87
2018-12-09T14:02:22.375Z,5.30
2018-12-09T14:04:53.576Z,5.50
2018-12-09T14:07:23.492Z,5.50
2018-12-09T14:09:53.086Z,5.10
2018-12-09T14:12:23.644Z,4.63
2018-12-09T14:14:54.775Z,5.80
2018-12-09T14:17:24.351Z,9.63
2018-12-09T14:19:53.984Z,5.80
2018-12-09T14:22:25.526Z,7.73
2018-12-09T14:24:55.223Z,8.13
2018-12-09T14:27:25.081Z,7.53
2018-12-09T14:29:54.808Z,5.80
2018-12-09T14:32:24.401Z,6.23
2018-12-09T14:34:57.566Z,4.77
2018-12-09T14:37:27.442Z,3.63
2018-12-09T14:39:57.004Z,7.80
2018-12-09T14:42:27.689Z,9.77
2018-12-09T14:44:57.325Z,4.70
2018-12-09T14:47:27.107Z,5.60
2018-12-09T14:49:56.683Z,4.37
2018-12-09T14:52:26.309Z,5.57
2018-12-09T14:54:55.911Z,5.43
2018-12-09T14:57:25.518Z,9.50
2018-12-09T14:59:55.096Z,5.80
2018-12-09T15:02:24.688Z,4.37
2018-12-09T15:04:54.385Z,6.70
2018-12-09T15:07:23.990Z,6.37
2018-12-09T15:09:53.842Z,9.37
2018-12-09T15:12:23.874Z,7.17
2018-12-09T15:14:53.481Z,3.80
2018-12-09T15:17:24.116Z,4.90
2018-12-09T15:19:53.715Z,9.03
2018-12-09T15:22:24.771Z,5.37
2018-12-09T15:24:54.434Z,6.23
2018-12-09T15:27:24.815Z,4.27
2018-12-09T15:29:55.296Z,6.77
2018-12-09T15:32:24.857Z,8.23
2018-12-09T15:34:54.447Z,4.70
2018-12-09T15:37:24.036Z,5.83
2018-12-09T15:39:53.613Z,5.10
2018-12-09T15:42:23.189Z,6.03
2018-12-09T15:44:53.985Z,7.53
2018-12-09T15:47:23.563Z,6.80
2018-12-09T15:49:56.050Z,7.83
2018-12-09T15:52:26.587Z,10.80
2018-12-09T15:54:57.412Z,6.83
2018-12-09T15:57:27.059Z,8.37
2018-12-09T15:59:56.662Z,5.00
2018-12-09T16:02:26.240Z,6.77
2018-12-09T16:04:57.362Z,5.50
2018-12-09T16:07:27.269Z,4.37
2018-12-09T16:09:56.901Z,3.03
2018-12-09T16:12:26.471Z,6.03
2018-12-09T16:14:56.496Z,7.17
2018-12-09T16:17:26.449Z,7.60
2018-12-09T16:19:56.276Z,5.57
2018-12-09T16:22:26.626Z,4.43
2018-12-09T16:24:56.378Z,5.67
2018-12-09T16:27:26.323Z,8.33
2018-12-09T16:29:56.061Z,4.10
2018-12-09T16:32:25.943Z,7.53
2018-12-09T16:34:55.743Z,4.20
2018-12-09T16:37:26.199Z,7.10
2018-12-09T16:39:55.770Z,4.37
2018-12-09T16:42:25.357Z,6.00
2018-12-09T16:44:55.058Z,6.50
2018-12-09T16:47:24.639Z,4.97
2018-12-09T16:49:54.235Z,10.67
2018-12-09T16:52:23.824Z,5.00
2018-12-09T16:54:53.443Z,7.83
2018-12-09T16:57:23.040Z,5.83
2018-12-09T16:59:52.612Z,7.17
2018-12-09T17:02:22.218Z,5.13
2018-12-09T17:04:51.910Z,7.93
2018-12-09T17:07:21.578Z,7.40
2018-12-09T17:09:51.181Z,9.13
2018-12-09T17:12:20.890Z,6.27
2018-12-09T17:14:53.353Z,6.80
2018-12-09T17:17:22.982Z,3.80
2018-12-09T17:19:52.581Z,7.73
2018-12-09T17:22:22.152Z,4.30
2018-12-09T17:24:53.340Z,6.67
2018-12-09T17:27:22.911Z,3.90
2018-12-09T17:29:52.505Z,5.03
2018-12-09T17:32:22.074Z,6.43
2018-12-09T17:34:51.705Z,6.10
2018-12-09T17:37:21.306Z,6.33
2018-12-09T17:39:50.896Z,3.63
2018-12-09T17:42:20.487Z,9.73
2018-12-09T17:44:50.506Z,6.30
2018-12-09T17:47:20.084Z,10.20
2018-12-09T17:49:49.663Z,9.50
2018-12-09T17:52:19.262Z,9.57
2018-12-09T17:54:48.874Z,5.07
2018-12-09T17:57:18.456Z,6.37
2018-12-09T17:59:48.027Z,8.93
2018-12-09T18:02:17.630Z,9.67
2018-12-09T18:04:47.231Z,9.07
2018-12-09T18:07:16.950Z,10.93
2018-12-09T18:09:46.640Z,7.87
2018-12-09T18:12:16.263Z,9.00
2018-12-09T18:14:45.879Z,10.20
2018-12-09T18:17:15.469Z,11.47
2018-12-09T18:19:45.354Z,8.00
2018-12-09T18:22:19.926Z,6.13
2018-12-09T18:24:50.059Z,7.97
2018-12-09T18:27:19.638Z,10.23
2018-12-09T18:29:49.270Z,7.70
2018-12-09T18:32:18.932Z,11.83
2018-12-09T18:34:49.078Z,6.90
2018-12-09T18:37:18.721Z,10.67
2018-12-09T18:39:48.707Z,8.13
2018-12-09T18:42:18.280Z,9.17
2018-12-09T18:44:47.996Z,7.77
2018-12-09T18:47:17.606Z,12.53
2018-12-09T18:49:47.433Z,15.17
2018-12-09T18:52:17.015Z,8.73
2018-12-09T18:54:46.705Z,12.97
2018-12-09T18:57:16.323Z,8.90
2018-12-09T18:59:45.921Z,9.67
2018-12-09T19:02:15.533Z,10.67
2018-12-09T19:04:45.177Z,16.60
2018-12-09T19:07:14.991Z,6.03
2018-12-09T19:09:44.634Z,4.93
2018-12-09T19:12:14.359Z,13.20
2018-12-09T19:14:43.951Z,9.33
2018-12-09T19:17:13.561Z,11.13
2018-12-09T19:19:43.427Z,7.20
2018-12-09T19:22:13.019Z,16.73
2018-12-09T19:24:42.659Z,9.27
2018-12-09T19:30:19.402Z,8.23
2018-12-09T19:32:50.082Z,10.30
2018-12-09T19:35:19.737Z,8.43
2018-12-09T19:37:50.582Z,10.97
2018-12-09T19:40:22.127Z,15.77
2018-12-09T19:43:00.434Z,7.23
2018-12-09T19:45:30.535Z,10.70
2018-12-09T19:48:00.811Z,14.13
2018-12-09T19:50:30.656Z,12.03
2018-12-09T19:53:00.208Z,11.47
2018-12-09T19:55:29.841Z,11.40
2018-12-09T19:57:59.416Z,10.73
2018-12-09T20:00:29.064Z,13.30
2018-12-09T20:02:58.710Z,10.33
2018-12-09T20:05:28.292Z,11.37
2018-12-09T20:07:57.885Z,12.83
2018-12-09T20:10:27.592Z,10.13
2018-12-09T20:12:57.191Z,7.70
2018-12-09T20:15:26.867Z,12.20
2018-12-09T20:17:56.565Z,12.10
2018-12-09T20:20:26.166Z,14.17
2018-12-09T20:22:55.791Z,16.90
2018-12-09T20:25:25.714Z,10.17
2018-12-09T20:28:00.343Z,14.50
2018-12-09T20:30:44.283Z,13.93
2018-12-09T20:33:14.235Z,10.37
2018-12-09T20:35:44.000Z,12.23
2018-12-09T20:38:14.515Z,10.77
2018-12-09T20:40:44.160Z,13.90
2018-12-09T20:43:16.004Z,10.53
2018-12-09T20:45:45.927Z,14.00
2018-12-09T20:48:17.106Z,12.43
2018-12-09T20:50:46.844Z,11.47
2018-12-09T20:53:23.796Z,14.00
2018-12-09T20:56:01.717Z,12.37
2018-12-09T20:58:32.034Z,11.43
2018-12-09T21:01:03.831Z,11.87
2018-12-09T21:03:33.923Z,10.07
2018-12-09T21:06:04.286Z,12.10
2018-12-09T21:08:39.045Z,15.33
2018-12-09T21:11:09.044Z,15.43
2018-12-09T21:13:39.696Z,14.33
2018-12-09T21:16:10.370Z,15.10
2018-12-09T21:18:43.823Z,8.47
2018-12-09T21:21:13.934Z,16.53
2018-12-09T21:23:45.590Z,11.93
2018-12-09T21:26:15.237Z,12.63
2018-12-09T21:28:44.871Z,11.10
2018-12-09T21:31:14.480Z,12.80
2018-12-09T21:33:44.391Z,13.53
2018-12-09T21:36:16.385Z,11.13
2018-12-09T21:38:45.993Z,9.17
2018-12-09T21:41:15.601Z,10.23
2018-12-09T21:43:45.845Z,13.23
2018-12-09T21:46:16.025Z,10.53
2018-12-09T21:48:45.691Z,11.70
2018-12-09T21:51:23.925Z,10.23
2018-12-09T21:53:53.548Z,13.17
2018-12-09T21:56:23.246Z,15.63
2018-12-09T21:58:52.853Z,13.47
2018-12-09T22:01:22.473Z,11.20
2018-12-09T22:03:52.118Z,15.40
2018-12-09T22:06:21.737Z,14.30
2018-12-09T22:08:53.546Z,9.90
2018-12-09T22:11:23.186Z,12.93
2018-12-09T22:13:52.898Z,11.20
2018-12-09T22:16:25.152Z,15.40
2018-12-09T22:18:55.052Z,13.83
2018-12-09T22:21:24.729Z,8.47
2018-12-09T22:23:56.795Z,12.07
2018-12-09T22:26:26.459Z,13.67
2018-12-09T22:28:56.044Z,7.97
2018-12-09T22:31:25.631Z,8.90
2018-12-09T22:33:55.215Z,10.70
2018-12-09T22:36:25.314Z,13.47
2018-12-09T22:38:54.928Z,13.57
2018-12-09T22:41:24.560Z,13.43
2018-12-09T22:43:54.200Z,14.30
2018-12-09T22:46:23.793Z,9.43
2018-12-09T22:48:53.385Z,9.50
2018-12-09T22:51:22.989Z,10.50
2018-12-09T22:53:52.852Z,14.53
2018-12-09T22:56:22.454Z,6.87
2018-12-09T22:58:52.026Z,7.83
2018-12-09T23:01:21.675Z,9.03
2018-12-09T23:03:51.273Z,8.60
2018-12-09T23:06:21.238Z,8.87
2018-12-09T23:08:50.852Z,9.13
2018-12-09T23:11:20.483Z,10.20
2018-12-09T23:13:50.135Z,8.70
2018-12-09T23:16:19.740Z,13.07
2018-12-09T23:18:49.338Z,10.10
2018-12-09T23:21:18.950Z,14.03
2018-12-09T23:23:48.533Z,7.93
2018-12-09T23:26:18.125Z,6.80
2018-12-09T23:28:47.750Z,5.03
2018-12-09T23:31:17.718Z,11.20
2018-12-09T23:33:47.327Z,14.17
2018-12-09T23:36:17.028Z,9.57
2018-12-09T23:38:46.997Z,10.47
2018-12-09T23:41:16.672Z,10.70
2018-12-09T23:43:46.298Z,14.30
2018-12-09T23:46:15.935Z,11.00
2018-12-09T23:48:45.562Z,12.27
2018-12-09T23:51:15.211Z,9.07
2018-12-09T23:53:45.018Z,8.73
2018-12-09T23:56:14.696Z,7.67
2018-12-09T23:58:44.274Z,9.33
